Time;durP1;ratioP1;P1;durP2;ratioP2;P2;SDS_P1;SDS_P2;PMS_P1;PMS_P2;Temp;Humidity;BMP_temperature;BMP_pressure;BME280_temperature;BME280_humidity;BME280_pressure;Samples;Min_cycle;Max_cycle;Signal;HPM_P1;HPM_P2
2022/10/08 00:00:54;;;;;;;9.70;2.10;;;12.20;99.90;;;;;;5033877;28;20446;-84
2022/10/08 00:03:23;;;;;;;9.40;3.00;;;12.20;99.90;;;;;;5041415;28;20505;-84
2022/10/08 00:05:57;;;;;;;7.20;2.37;;;12.30;99.90;;;;;;5043312;28;20494;-84
2022/10/08 00:08:24;;;;;;;9.77;2.47;;;12.20;99.90;;;;;;5029685;28;20978;-85
2022/10/08 00:10:55;;;;;;;9.17;2.77;;;12.30;99.90;;;;;;5038642;28;20490;-85
2022/10/08 00:13:24;;;;;;;9.00;2.50;;;12.40;99.90;;;;;;5039298;28;20455;-87
2022/10/08 00:15:51;;;;;;;7.73;2.73;;;12.40;99.90;;;;;;5040199;28;20474;-85
2022/10/08 00:18:20;;;;;;;6.00;2.20;;;12.40;99.90;;;;;;5057865;28;20449;-86
2022/10/08 00:20:47;;;;;;;7.93;2.23;;;12.50;99.90;;;;;;5044266;28;20448;-85
2022/10/08 00:23:15;;;;;;;9.33;2.60;;;12.40;99.90;;;;;;5039116;28;20456;-85
2022/10/08 00:25:43;;;;;;;8.30;2.37;;;12.40;99.90;;;;;;5038682;28;20562;-85
2022/10/08 00:28:12;;;;;;;13.37;2.40;;;12.40;99.90;;;;;;5038569;28;20453;-86
2022/10/08 00:30:41;;;;;;;8.57;2.80;;;12.40;99.90;;;;;;5039937;28;20867;-85
2022/10/08 00:33:10;;;;;;;7.97;3.93;;;12.40;99.90;;;;;;5039525;28;20462;-85
2022/10/08 00:35:38;;;;;;;11.67;2.40;;;12.50;99.90;;;;;;5039182;28;20482;-84
2022/10/08 00:38:06;;;;;;;5.53;2.17;;;12.50;99.90;;;;;;5039086;28;21013;-85
2022/10/08 00:40:40;;;;;;;6.27;1.77;;;12.60;99.90;;;;;;5039554;28;20455;-85
2022/10/08 00:43:12;;;;;;;5.47;2.60;;;12.60;99.90;;;;;;5038539;28;20454;-85
2022/10/08 00:45:40;;;;;;;8.50;2.27;;;12.50;99.90;;;;;;5039034;28;20478;-85
2022/10/08 00:48:11;;;;;;;6.67;2.30;;;12.60;99.90;;;;;;5038712;28;20458;-84
2022/10/08 00:50:39;;;;;;;9.93;2.90;;;12.60;99.90;;;;;;5038346;28;21088;-84
2022/10/08 00:53:07;;;;;;;7.70;2.67;;;12.50;99.90;;;;;;5038478;28;20471;-85
2022/10/08 00:55:35;;;;;;;11.00;2.57;;;12.50;99.90;;;;;;5039493;28;20467;-83
2022/10/08 00:58:09;;;;;;;9.40;2.63;;;12.40;99.90;;;;;;5038718;28;20552;-84
2022/10/08 01:00:36;;;;;;;8.30;2.90;;;12.60;99.90;;;;;;5038439;28;20974;-84
2022/10/08 01:03:05;;;;;;;8.13;2.43;;;12.50;99.90;;;;;;5038535;28;20835;-83
2022/10/08 01:05:44;;;;;;;3.93;1.90;;;12.60;99.90;;;;;;5051351;22;20601;-85
2022/10/08 01:08:16;;;;;;;4.90;1.97;;;12.50;99.90;;;;;;5078900;28;20437;-85
2022/10/08 01:10:53;;;;;;;9.13;2.03;;;12.60;99.90;;;;;;5078546;28;20510;-84
2022/10/08 01:13:31;;;;;;;6.30;2.70;;;12.50;99.90;;;;;;5078807;28;20456;-85
2022/10/08 01:16:01;;;;;;;4.00;2.00;;;12.40;99.90;;;;;;5078167;28;20525;-85
2022/10/08 01:18:36;;;;;;;6.67;2.30;;;12.40;99.90;;;;;;5078043;28;20464;-83
2022/10/08 01:21:09;;;;;;;8.67;2.53;;;12.50;99.90;;;;;;5078208;28;20453;-84
2022/10/08 01:23:58;;;;;;;5.60;2.00;;;12.50;99.90;;;;;;5078540;28;20503;-84
2022/10/08 01:26:43;;;;;;;7.90;4.47;;;12.60;99.90;;;;;;5077190;28;20476;-84
2022/10/08 01:29:17;;;;;;;7.20;2.30;;;12.60;99.90;;;;;;5076277;28;20839;-85
2022/10/08 01:31:46;;;;;;;6.37;2.40;;;12.50;99.90;;;;;;5075527;28;20480;-84
2022/10/08 01:34:17;;;;;;;12.63;2.43;;;12.60;99.90;;;;;;5075813;28;20454;-84
2022/10/08 01:36:49;;;;;;;9.17;2.37;;;12.50;99.90;;;;;;5078903;28;20467;-83
2022/10/08 01:39:18;;;;;;;6.07;2.37;;;12.50;99.90;;;;;;5078376;28;20455;-83
2022/10/08 01:41:50;;;;;;;5.00;2.50;;;12.50;99.90;;;;;;5079194;28;20448;-85
2022/10/08 01:44:23;;;;;;;4.37;2.03;;;12.50;99.90;;;;;;5076460;28;20445;-84
2022/10/08 01:46:51;;;;;;;9.30;2.20;;;12.50;99.90;;;;;;5075173;28;20905;-85
2022/10/08 01:49:21;;;;;;;5.97;2.27;;;12.60;99.90;;;;;;5075829;28;20507;-85
2022/10/08 01:51:53;;;;;;;6.07;2.00;;;12.60;99.90;;;;;;5075290;28;20492;-85
2022/10/08 01:54:21;;;;;;;9.17;2.50;;;12.50;99.90;;;;;;5076699;28;20551;-85
2022/10/08 01:56:51;;;;;;;6.43;2.10;;;12.40;99.90;;;;;;5076630;28;20484;-84
2022/10/08 01:59:23;;;;;;;5.90;2.27;;;12.40;99.90;;;;;;5075046;28;20455;-84
2022/10/08 02:01:56;;;;;;;7.23;2.40;;;12.50;99.90;;;;;;5074193;28;20449;-85
2022/10/08 02:04:32;;;;;;;7.70;2.13;;;12.40;99.90;;;;;;5075061;28;20454;-85
2022/10/08 02:07:02;;;;;;;7.87;2.20;;;12.40;99.90;;;;;;5075948;28;20486;-85
2022/10/08 02:09:31;;;;;;;5.80;1.83;;;12.50;99.90;;;;;;5079167;28;20495;-84
2022/10/08 02:11:58;;;;;;;8.07;1.80;;;12.60;99.90;;;;;;5078330;28;20489;-85
2022/10/08 02:14:29;;;;;;;6.20;3.20;;;12.60;99.90;;;;;;5078676;28;20444;-85
2022/10/08 02:17:07;;;;;;;6.47;2.37;;;12.50;99.90;;;;;;5077485;28;20468;-86
2022/10/08 02:19:44;;;;;;;6.93;2.27;;;12.60;99.90;;;;;;5077444;28;20979;-85
2022/10/08 02:22:14;;;;;;;6.90;2.50;;;12.60;99.90;;;;;;5080940;28;20453;-85
2022/10/08 02:24:45;;;;;;;4.63;1.70;;;12.70;99.90;;;;;;5079160;28;20450;-85
2022/10/08 02:27:14;;;;;;;4.47;1.70;;;12.70;99.90;;;;;;5078489;28;20472;-86
2022/10/08 02:29:46;;;;;;;7.80;2.57;;;12.70;99.90;;;;;;5096179;28;20512;-84
2022/10/08 02:32:19;;;;;;;7.13;2.60;;;12.70;99.90;;;;;;5088145;28;20477;-85
2022/10/08 02:34:50;;;;;;;6.37;2.00;;;12.70;99.90;;;;;;5080712;28;20460;-85
2022/10/08 02:37:21;;;;;;;5.70;2.07;;;12.70;99.90;;;;;;5080938;28;20484;-85
2022/10/08 02:39:52;;;;;;;8.93;2.20;;;12.70;99.90;;;;;;5077829;28;20537;-85
2022/10/08 02:42:24;;;;;;;4.50;2.30;;;12.80;99.90;;;;;;5076552;28;20447;-85
2022/10/08 02:44:56;;;;;;;7.77;2.20;;;12.90;99.90;;;;;;5077134;28;20818;-85
2022/10/08 02:47:27;;;;;;;6.47;2.20;;;13.00;99.90;;;;;;5078317;28;20533;-85
2022/10/08 02:49:57;;;;;;;10.50;2.10;;;12.90;99.90;;;;;;5081352;28;20456;-85
2022/10/08 02:52:27;;;;;;;5.60;2.30;;;13.00;99.90;;;;;;5082935;28;21011;-85
2022/10/08 02:54:56;;;;;;;6.40;2.00;;;12.90;99.90;;;;;;5078937;28;20458;-85
2022/10/08 02:57:29;;;;;;;6.83;2.13;;;13.00;99.90;;;;;;5077196;28;20474;-85
2022/10/08 02:59:58;;;;;;;12.03;2.60;;;13.00;99.90;;;;;;5076102;28;20850;-84
2022/10/08 03:02:31;;;;;;;9.70;2.50;;;13.00;99.90;;;;;;5076439;28;20510;-85
2022/10/08 03:05:02;;;;;;;7.03;2.47;;;13.10;99.90;;;;;;5075615;28;20449;-85
2022/10/08 03:07:32;;;;;;;6.70;2.33;;;13.10;99.90;;;;;;5075993;28;20486;-85
2022/10/08 03:10:04;;;;;;;13.53;3.03;;;13.10;99.90;;;;;;5076224;28;20459;-86
2022/10/08 03:12:31;;;;;;;7.20;2.10;;;13.10;99.90;;;;;;5076483;28;20487;-86
2022/10/08 03:15:01;;;;;;;6.80;2.20;;;13.00;99.90;;;;;;5076594;28;20827;-85
2022/10/08 03:17:32;;;;;;;6.60;2.03;;;13.10;99.90;;;;;;5075688;28;20959;-85
2022/10/08 03:20:01;;;;;;;5.53;1.97;;;13.00;99.90;;;;;;5073494;28;20533;-85
2022/10/08 03:22:30;;;;;;;6.23;2.73;;;13.10;99.90;;;;;;5074730;28;20533;-84
2022/10/08 03:24:57;;;;;;;9.10;2.40;;;13.10;99.90;;;;;;5074467;28;20478;-85
2022/10/08 03:27:24;;;;;;;7.50;2.43;;;13.20;99.90;;;;;;5074899;28;20562;-86
2022/10/08 03:29:55;;;;;;;9.23;3.20;;;13.10;99.90;;;;;;5073534;28;20454;-85
2022/10/08 03:32:23;;;;;;;5.40;2.70;;;13.00;99.90;;;;;;5074812;28;20484;-85
2022/10/08 03:34:50;;;;;;;6.73;2.77;;;13.10;99.90;;;;;;5074096;28;20453;-87
2022/10/08 03:37:17;;;;;;;9.13;2.90;;;13.10;99.90;;;;;;5074464;28;20478;-85
2022/10/08 03:39:44;;;;;;;5.53;2.40;;;13.10;99.90;;;;;;5074192;28;20811;-85
2022/10/08 03:42:11;;;;;;;9.13;2.90;;;13.00;99.90;;;;;;5075673;28;20905;-85
2022/10/08 03:44:38;;;;;;;14.63;2.67;;;13.00;99.90;;;;;;5076825;28;20470;-85
2022/10/08 03:47:05;;;;;;;12.70;3.17;;;12.90;99.90;;;;;;5079034;28;20474;-85
2022/10/08 03:49:33;;;;;;;7.00;2.70;;;12.90;99.90;;;;;;5077743;28;20458;-85
2022/10/08 03:52:00;;;;;;;5.07;2.57;;;12.90;99.90;;;;;;5077598;28;20512;-84
2022/10/08 03:54:27;;;;;;;15.77;4.00;;;12.80;99.90;;;;;;5080640;28;20449;-84
2022/10/08 03:56:53;;;;;;;8.00;3.30;;;12.80;99.90;;;;;;5081371;28;20472;-85
2022/10/08 03:59:20;;;;;;;9.13;3.30;;;12.80;99.90;;;;;;5080125;28;20940;-85
2022/10/08 04:01:47;;;;;;;7.43;3.00;;;12.80;99.90;;;;;;5073963;28;20965;-85
2022/10/08 04:04:14;;;;;;;6.33;2.87;;;12.80;99.90;;;;;;5076179;28;20450;-83
2022/10/08 04:06:42;;;;;;;6.60;3.13;;;12.80;99.90;;;;;;5080677;28;20483;-84
2022/10/08 04:09:09;;;;;;;10.70;4.00;;;12.70;99.90;;;;;;5081594;28;20475;-84
2022/10/08 04:11:37;;;;;;;8.30;3.70;;;12.80;99.90;;;;;;5073608;28;20558;-85
2022/10/08 04:14:04;;;;;;;10.80;4.37;;;12.60;99.90;;;;;;5073061;28;20836;-84
2022/10/08 04:16:31;;;;;;;10.00;4.80;;;12.70;99.90;;;;;;5073318;28;20476;-84
2022/10/08 04:18:57;;;;;;;12.17;4.13;;;12.70;99.90;;;;;;5072687;28;20451;-85
2022/10/08 04:21:24;;;;;;;10.97;4.60;;;12.60;99.90;;;;;;5077186;28;20446;-84
2022/10/08 04:23:52;;;;;;;16.67;5.10;;;12.60;99.90;;;;;;5077593;28;20458;-85
2022/10/08 04:26:19;;;;;;;11.63;5.20;;;12.60;99.90;;;;;;5073467;28;20573;-84
2022/10/08 04:28:47;;;;;;;9.27;4.27;;;12.50;99.90;;;;;;5079677;28;20469;-84
2022/10/08 04:31:16;;;;;;;13.30;4.23;;;12.60;99.90;;;;;;5076178;28;20463;-85
2022/10/08 04:33:44;;;;;;;10.20;4.43;;;12.70;99.90;;;;;;5076880;28;20436;-84
2022/10/08 04:36:12;;;;;;;8.33;4.07;;;12.70;99.90;;;;;;5077130;28;20472;-85
2022/10/08 04:38:40;;;;;;;9.07;4.30;;;12.70;99.90;;;;;;5072572;28;20445;-85
2022/10/08 04:41:09;;;;;;;10.70;4.23;;;12.70;99.90;;;;;;5089693;28;20431;-84
2022/10/08 04:43:37;;;;;;;12.43;4.90;;;12.70;99.90;;;;;;5087338;28;20442;-86
2022/10/08 04:46:07;;;;;;;13.10;4.47;;;12.70;99.90;;;;;;5072393;28;20504;-85
2022/10/08 04:48:34;;;;;;;10.27;4.57;;;12.70;99.90;;;;;;5072477;28;20456;-86
2022/10/08 04:51:02;;;;;;;7.53;3.97;;;12.70;99.90;;;;;;5072062;28;20958;-85
2022/10/08 04:53:30;;;;;;;7.50;3.70;;;12.70;99.90;;;;;;5072499;28;20491;-86
2022/10/08 04:55:57;;;;;;;12.17;4.40;;;12.70;99.90;;;;;;5071958;28;20472;-85
2022/10/08 04:58:26;;;;;;;8.07;4.60;;;12.70;99.90;;;;;;5082012;28;20453;-85
2022/10/08 05:00:52;;;;;;;10.53;4.57;;;12.60;99.90;;;;;;5087850;28;20451;-85
2022/10/08 05:03:19;;;;;;;10.33;4.07;;;12.50;99.90;;;;;;5075105;28;20520;-84
2022/10/08 05:05:46;;;;;;;5.50;4.00;;;12.60;99.90;;;;;;5076757;28;20483;-85
2022/10/08 05:08:13;;;;;;;10.73;5.43;;;12.60;99.90;;;;;;5074405;28;20477;-87
2022/10/08 05:10:48;;;;;;;11.93;4.67;;;12.50;99.90;;;;;;5070658;28;20485;-85
2022/10/08 05:13:14;;;;;;;10.40;4.57;;;12.50;99.90;;;;;;5071961;28;20999;-85
2022/10/08 05:15:43;;;;;;;12.40;6.40;;;12.50;99.90;;;;;;5071980;28;20509;-85
2022/10/08 05:18:09;;;;;;;12.97;5.00;;;12.50;99.90;;;;;;5071735;28;20469;-86
2022/10/08 05:20:36;;;;;;;11.70;6.47;;;12.50;99.90;;;;;;5071479;28;20459;-85
2022/10/08 05:23:03;;;;;;;14.10;7.30;;;12.50;99.90;;;;;;5060799;28;20461;-86
2022/10/08 05:25:31;;;;;;;10.30;5.73;;;12.60;99.90;;;;;;5067973;28;20490;-85
2022/10/08 05:27:58;;;;;;;10.83;6.63;;;12.60;99.90;;;;;;5071746;28;20511;-85
2022/10/08 05:30:24;;;;;;;11.47;7.40;;;12.60;99.90;;;;;;5072279;28;20451;-86
2022/10/08 05:32:53;;;;;;;9.90;6.50;;;12.60;99.90;;;;;;5071601;28;20480;-86
2022/10/08 05:35:19;;;;;;;11.87;7.40;;;12.50;99.90;;;;;;5071494;28;20456;-86
2022/10/08 05:37:46;;;;;;;8.63;6.50;;;12.50;99.90;;;;;;5071595;28;20962;-85
2022/10/08 05:40:13;;;;;;;11.20;7.27;;;12.60;99.90;;;;;;5071573;28;20555;-85
2022/10/08 05:42:40;;;;;;;9.77;6.03;;;12.50;99.90;;;;;;5070671;28;20456;-85
2022/10/08 05:45:07;;;;;;;10.83;5.90;;;12.60;99.90;;;;;;5071656;28;20441;-85
2022/10/08 05:47:34;;;;;;;12.03;7.37;;;12.60;99.90;;;;;;5071543;28;20452;-86
2022/10/08 05:50:03;;;;;;;10.93;6.47;;;12.40;99.90;;;;;;5071937;28;20458;-85
2022/10/08 05:52:30;;;;;;;11.87;6.47;;;12.50;99.90;;;;;;5078803;28;20556;-84
2022/10/08 05:54:57;;;;;;;10.33;6.90;;;12.50;99.90;;;;;;5076062;28;20454;-85
2022/10/08 05:57:24;;;;;;;9.50;5.83;;;12.50;99.90;;;;;;5075871;28;20481;-85
2022/10/08 05:59:50;;;;;;;9.07;5.60;;;12.60;99.90;;;;;;5077280;28;20453;-85
2022/10/08 06:02:17;;;;;;;9.53;5.90;;;12.70;99.90;;;;;;5076694;28;20454;-84
2022/10/08 06:04:44;;;;;;;11.13;5.97;;;12.50;99.90;;;;;;5076317;28;20456;-85
2022/10/08 06:07:12;;;;;;;13.50;6.67;;;12.60;99.90;;;;;;5077396;28;20489;-85
2022/10/08 06:09:39;;;;;;;14.57;6.03;;;12.50;99.90;;;;;;5074546;28;20458;-85
2022/10/08 06:12:07;;;;;;;9.30;4.83;;;12.40;99.90;;;;;;5074592;28;20982;-85
2022/10/08 06:14:34;;;;;;;11.20;5.93;;;12.40;99.90;;;;;;5075905;28;20457;-85
2022/10/08 06:17:01;;;;;;;7.07;3.73;;;12.50;99.90;;;;;;5075989;28;20474;-85
2022/10/08 06:19:28;;;;;;;8.77;3.70;;;12.60;99.90;;;;;;5073627;28;20449;-85
2022/10/08 06:21:55;;;;;;;7.23;4.23;;;12.60;99.90;;;;;;5072865;28;20461;-85
2022/10/08 06:24:23;;;;;;;15.60;5.80;;;12.70;99.90;;;;;;5072699;28;20461;-85
2022/10/08 06:26:49;;;;;;;9.67;5.13;;;12.60;99.90;;;;;;5073281;28;20480;-86
2022/10/08 06:29:18;;;;;;;11.40;4.97;;;12.70;99.90;;;;;;5085210;28;20499;-85
2022/10/08 06:31:45;;;;;;;8.00;4.57;;;12.70;99.90;;;;;;5095555;28;20449;-86
2022/10/08 06:34:12;;;;;;;13.80;5.80;;;12.60;99.90;;;;;;5096087;28;20483;-85
2022/10/08 06:36:39;;;;;;;13.30;5.70;;;12.70;99.90;;;;;;5076432;28;20476;-85
2022/10/08 06:39:09;;;;;;;8.13;5.10;;;12.60;99.90;;;;;;5073263;28;20867;-86
2022/10/08 06:41:38;;;;;;;6.97;4.80;;;12.60;99.90;;;;;;5072864;28;20457;-86
2022/10/08 06:44:07;;;;;;;9.67;5.77;;;12.80;99.90;;;;;;5072697;28;20465;-85
2022/10/08 06:46:34;;;;;;;9.37;4.07;;;12.80;99.90;;;;;;5072402;28;20470;-86
2022/10/08 06:49:01;;;;;;;8.60;4.10;;;12.80;99.90;;;;;;5072461;28;20452;-85
2022/10/08 06:51:29;;;;;;;7.07;4.27;;;12.90;99.90;;;;;;5083503;28;20448;-90
2022/10/08 06:53:57;;;;;;;15.10;4.93;;;12.90;99.90;;;;;;5092811;28;20564;-85
2022/10/08 06:56:25;;;;;;;12.87;5.50;;;12.90;99.90;;;;;;5075526;28;20467;-85
2022/10/08 06:58:53;;;;;;;13.70;5.50;;;12.90;99.90;;;;;;5074374;28;20452;-85
2022/10/08 07:01:22;;;;;;;8.23;4.30;;;12.90;99.90;;;;;;5074494;28;20458;-86
2022/10/08 07:03:50;;;;;;;15.40;5.77;;;13.00;99.90;;;;;;5075246;28;20947;-86
2022/10/08 07:06:17;;;;;;;9.83;5.30;;;12.90;99.90;;;;;;5075069;28;20479;-85
2022/10/08 07:08:44;;;;;;;11.40;5.90;;;12.90;99.90;;;;;;5075024;28;20461;-85
2022/10/08 07:11:13;;;;;;;10.60;7.13;;;12.90;99.90;;;;;;5074401;28;20825;-85
2022/10/08 07:13:40;;;;;;;10.87;5.37;;;12.80;99.90;;;;;;5074986;28;20496;-85
2022/10/08 07:16:09;;;;;;;9.77;6.00;;;12.90;99.90;;;;;;5074255;28;20481;-86
2022/10/08 07:18:37;;;;;;;14.33;5.97;;;13.00;99.90;;;;;;5073746;28;20461;-85
2022/10/08 07:21:05;;;;;;;12.67;7.07;;;13.00;99.90;;;;;;5073898;28;20477;-86
2022/10/08 07:23:32;;;;;;;10.63;5.70;;;13.00;99.90;;;;;;5066093;28;20461;-85
2022/10/08 07:26:01;;;;;;;10.00;7.17;;;13.10;99.90;;;;;;5074431;28;20467;-85
2022/10/08 07:28:30;;;;;;;12.93;7.63;;;13.20;99.90;;;;;;5074993;28;20454;-85
2022/10/08 07:30:57;;;;;;;12.00;8.30;;;13.20;99.90;;;;;;5074234;28;20450;-85
2022/10/08 07:33:25;;;;;;;12.63;7.90;;;13.20;99.90;;;;;;5074553;28;20485;-86
2022/10/08 07:35:52;;;;;;;10.20;7.93;;;13.20;99.90;;;;;;5069849;28;20475;-84
2022/10/08 07:38:19;;;;;;;11.80;9.90;;;13.20;99.90;;;;;;5076066;28;20469;-87
2022/10/08 07:40:47;;;;;;;16.33;10.83;;;13.20;99.90;;;;;;5066490;28;20573;-86
2022/10/08 07:43:14;;;;;;;19.07;11.50;;;13.10;99.90;;;;;;5071051;28;20823;-84
2022/10/08 07:45:44;;;;;;;18.80;12.40;;;13.20;99.90;;;;;;5076513;28;20489;-85
2022/10/08 07:48:11;;;;;;;21.60;15.50;;;13.10;99.90;;;;;;5074624;28;20483;-85
2022/10/08 07:50:39;;;;;;;19.70;14.00;;;13.10;99.90;;;;;;5075165;28;20465;-85
2022/10/08 07:53:06;;;;;;;21.60;15.47;;;13.30;99.90;;;;;;5076667;28;20486;-85
2022/10/08 07:55:33;;;;;;;18.20;14.70;;;13.10;99.90;;;;;;5077084;28;20476;-85
2022/10/08 07:58:00;;;;;;;24.40;18.33;;;13.20;99.90;;;;;;5077289;28;20452;-84
2022/10/08 08:00:27;;;;;;;21.00;16.47;;;13.10;99.90;;;;;;5075888;28;20495;-86
2022/10/08 08:02:54;;;;;;;26.83;17.67;;;13.20;99.90;;;;;;5076936;28;20449;-85
2022/10/08 08:05:20;;;;;;;20.63;17.50;;;13.20;99.90;;;;;;5074196;28;20456;-85
2022/10/08 08:07:49;;;;;;;21.87;17.00;;;13.30;99.90;;;;;;5075841;28;20485;-86
2022/10/08 08:10:15;;;;;;;22.63;16.10;;;13.40;99.90;;;;;;5076179;28;20452;-85
2022/10/08 08:12:42;;;;;;;26.77;20.20;;;13.40;99.90;;;;;;5074850;28;20450;-86
2022/10/08 08:15:10;;;;;;;19.70;16.80;;;13.40;99.90;;;;;;5060130;28;20533;-86
2022/10/08 08:17:37;;;;;;;23.77;18.77;;;13.40;99.90;;;;;;5073832;28;20458;-86
2022/10/08 08:20:04;;;;;;;27.53;18.83;;;13.40;99.90;;;;;;5074727;28;20458;-86
2022/10/08 08:22:31;;;;;;;27.27;21.30;;;13.30;99.90;;;;;;5071055;28;20454;-87
2022/10/08 08:24:59;;;;;;;30.37;19.03;;;13.40;99.90;;;;;;5052109;28;21001;-86
2022/10/08 08:27:26;;;;;;;26.23;18.50;;;13.40;99.90;;;;;;5068098;28;20473;-87
2022/10/08 08:29:52;;;;;;;22.53;16.80;;;13.30;99.90;;;;;;5072867;28;20447;-87
2022/10/08 08:32:20;;;;;;;22.73;17.10;;;13.40;99.90;;;;;;5072919;28;20457;-86
2022/10/08 08:34:47;;;;;;;22.10;18.60;;;13.40;99.90;;;;;;5067431;28;20490;-87
2022/10/08 08:37:14;;;;;;;29.97;19.43;;;13.50;99.90;;;;;;5072792;28;20550;-86
2022/10/08 08:39:41;;;;;;;22.40;16.47;;;13.50;99.90;;;;;;5072531;28;20529;-86
2022/10/08 08:42:25;;;;;;;22.20;15.23;;;13.60;99.90;;;;;;5073240;28;20454;-86
2022/10/08 08:44:57;;;;;;;19.53;17.20;;;13.70;99.90;;;;;;5071704;28;20969;-86
2022/10/08 08:47:29;;;;;;;19.93;15.67;;;13.70;99.90;;;;;;5072825;28;20467;-87
2022/10/08 08:49:58;;;;;;;19.57;15.70;;;13.80;99.90;;;;;;5072325;28;20453;-86
2022/10/08 08:52:28;;;;;;;27.40;16.90;;;13.90;99.90;;;;;;5072877;28;20447;-86
2022/10/08 08:54:55;;;;;;;19.30;14.93;;;14.00;99.90;;;;;;5072864;28;20496;-87
2022/10/08 08:57:33;;;;;;;19.20;14.50;;;14.00;99.90;;;;;;5074138;28;20472;-88
2022/10/08 09:00:07;;;;;;;19.10;15.60;;;14.00;99.90;;;;;;5072263;28;20443;-87
2022/10/08 09:02:38;;;;;;;19.47;13.90;;;14.00;99.90;;;;;;5091464;28;20430;-87
2022/10/08 09:05:10;;;;;;;34.97;16.70;;;14.00;99.90;;;;;;5085180;28;20452;-87
2022/10/08 09:07:42;;;;;;;24.17;15.97;;;14.00;99.90;;;;;;5072583;28;20518;-86
2022/10/08 09:10:16;;;;;;;18.90;13.87;;;14.00;99.90;;;;;;5072065;28;20457;-87
2022/10/08 09:12:45;;;;;;;21.60;15.40;;;14.00;99.90;;;;;;5072489;28;20436;-87
2022/10/08 09:15:18;;;;;;;21.07;14.23;;;14.10;99.90;;;;;;5071526;28;20948;-86
2022/10/08 09:17:48;;;;;;;22.37;15.03;;;14.10;99.90;;;;;;5072559;28;20505;-86
2022/10/08 09:20:16;;;;;;;20.37;13.47;;;14.30;99.90;;;;;;5072616;28;20450;-88
2022/10/08 09:22:44;;;;;;;20.47;12.43;;;14.30;99.90;;;;;;5072834;28;20960;-87
2022/10/08 09:25:15;;;;;;;16.53;12.50;;;14.20;99.90;;;;;;5072927;28;20974;-86
2022/10/08 09:27:52;;;;;;;17.57;12.00;;;14.20;99.90;;;;;;5072209;28;20446;-86
2022/10/08 09:30:31;;;;;;;15.23;11.60;;;14.30;99.90;;;;;;5063994;28;20449;-86
2022/10/08 09:33:01;;;;;;;15.33;10.90;;;14.30;99.90;;;;;;5052064;28;20455;-86
2022/10/08 09:35:28;;;;;;;15.87;10.27;;;14.40;99.90;;;;;;5066229;28;20483;-86
2022/10/08 09:37:56;;;;;;;16.13;9.60;;;14.50;99.90;;;;;;5071722;28;20484;-87
2022/10/08 09:40:25;;;;;;;14.27;9.57;;;14.60;99.90;;;;;;5069913;28;20463;-86
2022/10/08 09:43:17;;;;;;;10.97;8.40;;;14.40;99.90;;;;;;5071987;28;20454;-86
2022/10/08 09:45:45;;;;;;;15.47;6.67;;;14.40;99.90;;;;;;5070420;28;20850;-86
2022/10/08 09:48:21;;;;;;;13.80;7.53;;;14.30;99.90;;;;;;5063016;28;20457;-87
2022/10/08 09:50:52;;;;;;;10.30;6.43;;;14.30;99.90;;;;;;5064311;28;20537;-88
2022/10/08 09:53:20;;;;;;;10.20;5.87;;;14.40;99.90;;;;;;5072403;28;20490;-86
2022/10/08 09:55:53;;;;;;;9.30;5.70;;;14.60;99.90;;;;;;5071835;28;20868;-87
2022/10/08 09:58:22;;;;;;;10.30;5.13;;;14.60;99.90;;;;;;5063487;28;20547;-87
2022/10/08 10:00:58;;;;;;;8.17;5.20;;;14.60;99.90;;;;;;5067621;28;20461;-88
2022/10/08 10:03:26;;;;;;;10.30;4.83;;;14.60;99.90;;;;;;5071626;28;20940;-87
2022/10/08 10:05:55;;;;;;;14.27;5.87;;;14.50;99.90;;;;;;5082677;28;20479;-87
2022/10/08 10:08:45;;;;;;;10.53;5.30;;;14.80;99.90;;;;;;5096520;28;20509;-88
2022/10/08 10:11:14;;;;;;;11.53;5.50;;;15.20;99.90;;;;;;5069356;28;20531;-87
2022/10/08 10:13:46;;;;;;;11.23;5.73;;;15.20;99.90;;;;;;5073024;28;20533;-87
2022/10/08 10:16:17;;;;;;;11.10;6.03;;;15.20;99.90;;;;;;5071614;28;20484;-88
2022/10/08 10:18:52;;;;;;;9.53;4.57;;;15.30;99.90;;;;;;5072737;28;20460;-87
2022/10/08 10:21:27;;;;;;;7.73;4.47;;;15.90;99.90;;;;;;5068361;28;20447;-87
2022/10/08 10:24:24;;;;;;;7.80;4.43;;;16.10;99.90;;;;;;5070323;28;20441;-87
2022/10/08 10:26:53;;;;;;;8.83;4.67;;;16.00;99.90;;;;;;5072210;28;20482;-87
2022/10/08 10:29:23;;;;;;;6.90;4.23;;;15.90;99.90;;;;;;5079690;28;20458;-87
2022/10/08 10:31:57;;;;;;;9.97;4.73;;;15.50;99.90;;;;;;5060129;28;20455;-88
2022/10/08 10:34:26;;;;;;;13.13;4.30;;;15.40;99.90;;;;;;5076406;28;20493;-88
2022/10/08 10:36:57;;;;;;;9.70;3.80;;;15.40;99.90;;;;;;5067111;28;20476;-87
2022/10/08 10:39:34;;;;;;;6.37;3.37;;;15.40;99.90;;;;;;5071432;28;20534;-88
2022/10/08 10:42:09;;;;;;;7.67;3.80;;;15.30;99.90;;;;;;5067085;28;20975;-87
2022/10/08 10:44:51;;;;;;;8.67;3.70;;;15.10;99.90;;;;;;5069272;28;20443;-87
2022/10/08 10:47:20;;;;;;;7.80;3.57;;;15.10;99.90;;;;;;5064019;28;20847;-88
2022/10/08 10:49:49;;;;;;;6.83;3.03;;;15.10;99.90;;;;;;5071869;28;20485;-86
2022/10/08 10:52:33;;;;;;;7.67;2.90;;;15.50;99.90;;;;;;5071353;28;20456;-87
2022/10/08 10:55:17;;;;;;;7.27;2.90;;;16.30;99.90;;;;;;5077881;28;20501;-88
2022/10/08 10:58:11;;;;;;;7.13;3.40;;;16.80;99.90;;;;;;5074546;28;20464;-88
2022/10/08 11:00:49;;;;;;;6.03;3.00;;;16.90;99.90;;;;;;5063135;28;20459;-88
2022/10/08 11:03:48;;;;;;;3.80;2.50;;;16.90;99.90;;;;;;5076335;28;20449;-87
2022/10/08 11:06:39;;;;;;;7.50;2.83;;;16.60;99.90;;;;;;5075188;28;21043;-89
2022/10/08 11:09:14;;;;;;;3.80;2.60;;;16.50;99.90;;;;;;5074622;28;20945;-89
2022/10/08 11:11:51;;;;;;;5.50;2.73;;;17.10;99.90;;;;;;5079408;28;20453;-90
2022/10/08 11:14:36;;;;;;;4.30;2.20;;;17.90;99.90;;;;;;5100607;28;20501;-88
2022/10/08 11:17:16;;;;;;;5.70;2.17;;;18.90;99.90;;;;;;5078083;28;20545;-87
2022/10/08 11:19:54;;;;;;;9.53;2.80;;;19.40;99.90;;;;;;5076712;28;20500;-89
2022/10/08 11:22:28;;;;;;;8.20;2.60;;;19.80;99.90;;;;;;5077687;28;20454;-89
2022/10/08 11:25:27;;;;;;;4.77;2.20;;;19.90;99.90;;;;;;5076076;28;20437;-88
2022/10/08 11:28:09;;;;;;;8.50;2.20;;;20.00;99.90;;;;;;5055782;28;20462;-88
2022/10/08 11:30:49;;;;;;;5.97;2.17;;;19.70;99.90;;;;;;5075759;28;20537;-88
2022/10/08 11:33:17;;;;;;;2.77;1.30;;;19.80;99.90;;;;;;5075013;28;20784;-89
2022/10/08 11:36:14;;;;;;;5.00;1.33;;;20.20;99.90;;;;;;5075309;28;20499;-88
2022/10/08 11:38:49;;;;;;;4.30;1.67;;;20.00;99.90;;;;;;5074775;28;20919;-87
2022/10/08 11:41:25;;;;;;;8.43;1.80;;;20.40;99.90;;;;;;5073369;28;20946;-88
2022/10/08 11:44:00;;;;;;;5.00;1.70;;;20.80;99.90;;;;;;5075138;28;20500;-87
2022/10/08 11:46:29;;;;;;;3.60;1.77;;;21.20;99.90;;;;;;5074480;28;20538;-89
2022/10/08 11:49:01;;;;;;;6.27;3.80;;;21.50;99.90;;;;;;5074710;28;20436;-88
2022/10/08 11:51:36;;;;;;;5.07;1.53;;;21.90;99.90;;;;;;5074611;28;20435;-87
2022/10/08 11:54:16;;;;;;;5.17;1.80;;;21.80;99.90;;;;;;5072685;28;21255;-87
2022/10/08 11:56:50;;;;;;;6.27;1.70;;;22.30;99.90;;;;;;5054291;28;20835;-87
2022/10/08 11:59:30;;;;;;;5.53;1.80;;;22.10;99.90;;;;;;5054450;28;20513;-86
2022/10/08 12:01:59;;;;;;;9.77;2.27;;;22.30;99.90;;;;;;5055003;28;20425;-88
2022/10/08 12:04:33;;;;;;;5.50;1.77;;;22.60;99.90;;;;;;5067142;28;20442;-87
2022/10/08 12:07:20;;;;;;;4.23;1.30;;;22.60;99.90;;;;;;5073738;28;20478;-88
2022/10/08 12:10:28;;;;;;;3.43;1.20;;;22.10;99.90;;;;;;5072551;28;20451;-87
2022/10/08 12:13:26;;;;;;;6.40;1.50;;;21.40;99.90;;;;;;5073586;28;20462;-86
2022/10/08 12:16:03;;;;;;;4.53;1.47;;;20.30;99.90;;;;;;5073805;28;21018;-87
2022/10/08 12:18:41;;;;;;;5.40;1.50;;;20.20;99.90;;;;;;5073163;28;20447;-87
2022/10/08 12:21:50;;;;;;;3.40;1.10;;;20.70;99.90;;;;;;5065878;28;20443;-88
2022/10/08 12:24:55;;;;;;;5.60;1.30;;;21.50;99.90;;;;;;5066661;28;20794;-87
2022/10/08 12:27:32;;;;;;;4.30;1.20;;;21.90;99.90;;;;;;5061170;28;20477;-86
2022/10/08 12:30:01;;;;;;;4.27;1.80;;;22.60;99.90;;;;;;5073009;28;20442;-86
2022/10/08 12:32:31;;;;;;;9.07;1.20;;;22.70;99.90;;;;;;5065621;28;20435;-87
2022/10/08 12:35:00;;;;;;;2.30;1.00;;;22.50;99.90;;;;;;5074152;28;20487;-88
2022/10/08 12:38:03;;;;;;;3.13;1.00;;;21.70;99.90;;;;;;5074705;28;20506;-87
2022/10/08 12:40:39;;;;;;;9.00;1.30;;;21.80;99.90;;;;;;5075354;28;20471;-86
2022/10/08 12:43:18;;;;;;;4.20;1.43;;;22.10;99.90;;;;;;5074409;28;20435;-88
2022/10/08 12:45:54;;;;;;;4.27;1.10;;;21.20;99.90;;;;;;5074414;28;20470;-88
2022/10/08 12:48:32;;;;;;;7.27;1.53;;;20.50;99.90;;;;;;5073641;28;20455;-87
2022/10/08 12:51:12;;;;;;;4.40;1.30;;;20.00;99.90;;;;;;5073020;28;20549;-88
2022/10/08 12:53:45;;;;;;;4.03;1.10;;;19.40;99.90;;;;;;5077173;28;20493;-87
2022/10/08 12:56:16;;;;;;;4.07;1.23;;;18.80;99.90;;;;;;5074510;28;20512;-88
2022/10/08 12:58:45;;;;;;;2.47;0.90;;;18.40;99.90;;;;;;5073187;28;20477;-88
2022/10/08 13:01:34;;;;;;;4.20;1.30;;;17.90;99.90;;;;;;5074409;28;20541;-88